Terminal Aerodrome Forecast
Issued by NWS

Home | Current Version | Previous Version | Text Only | Print | Product List | Glossary On
Versions: 1 2 3 4 5 6 7 8 9 10 11 12 13 14 15 16 17 18 19 20
000
FTUS43 KILX 260529
TAFBMI
TAF
KBMI 260529Z 2606/2706 05017KT P6SM SCT012 OVC035
     FM260900 03014KT P6SM SCT035
     FM261500 03012G18KT P6SM SCT040
     FM270100 04009KT P6SM SKC=

USA.gov is the U.S. government's official web portal to all federal, state and local government web resources and services.